sensor_id;sensor_type;location;lat;lon;timestamp;P1;durP1;ratioP1;P2;durP2;ratioP2
38182;SDS011;23991;52.430;10.586;2023-06-22T00:01:50;12.45;;;11.20;;
38182;SDS011;23991;52.430;10.586;2023-06-22T00:04:16;12.75;;;10.95;;
38182;SDS011;23991;52.430;10.586;2023-06-22T00:06:41;13.45;;;11.70;;
38182;SDS011;23991;52.430;10.586;2023-06-22T00:09:07;12.77;;;11.35;;
38182;SDS011;23991;52.430;10.586;2023-06-22T00:11:33;12.25;;;10.57;;
38182;SDS011;23991;52.430;10.586;2023-06-22T00:13:59;12.90;;;11.40;;
38182;SDS011;23991;52.430;10.586;2023-06-22T00:16:24;14.02;;;10.98;;
38182;SDS011;23991;52.430;10.586;2023-06-22T00:18:50;14.65;;;10.57;;
38182;SDS011;23991;52.430;10.586;2023-06-22T00:21:16;13.27;;;11.40;;
38182;SDS011;23991;52.430;10.586;2023-06-22T00:23:42;12.27;;;10.93;;
38182;SDS011;23991;52.430;10.586;2023-06-22T00:26:08;13.30;;;10.65;;
38182;SDS011;23991;52.430;10.586;2023-06-22T00:28:34;13.52;;;11.05;;
38182;SDS011;23991;52.430;10.586;2023-06-22T00:30:59;12.60;;;10.85;;
38182;SDS011;23991;52.430;10.586;2023-06-22T00:33:25;12.05;;;10.77;;
38182;SDS011;23991;52.430;10.586;2023-06-22T00:35:51;14.25;;;11.75;;
38182;SDS011;23991;52.430;10.586;2023-06-22T00:38:18;13.32;;;11.50;;
38182;SDS011;23991;52.430;10.586;2023-06-22T00:40:47;14.88;;;11.45;;
38182;SDS011;23991;52.430;10.586;2023-06-22T00:43:12;13.90;;;10.80;;
38182;SDS011;23991;52.430;10.586;2023-06-22T00:45:37;11.68;;;10.48;;
38182;SDS011;23991;52.430;10.586;2023-06-22T00:48:03;12.40;;;10.88;;
38182;SDS011;23991;52.430;10.586;2023-06-22T00:50:30;10.98;;;9.73;;
38182;SDS011;23991;52.430;10.586;2023-06-22T00:52:58;12.45;;;11.15;;
38182;SDS011;23991;52.430;10.586;2023-06-22T00:55:27;13.83;;;11.27;;
38182;SDS011;23991;52.430;10.586;2023-06-22T00:57:53;11.18;;;9.98;;
38182;SDS011;23991;52.430;10.586;2023-06-22T01:00:24;11.32;;;10.15;;
38182;SDS011;23991;52.430;10.586;2023-06-22T01:02:51;11.38;;;10.18;;
38182;SDS011;23991;52.430;10.586;2023-06-22T01:05:20;12.30;;;10.27;;
38182;SDS011;23991;52.430;10.586;2023-06-22T01:10:33;12.52;;;10.38;;
38182;SDS011;23991;52.430;10.586;2023-06-22T01:13:16;12.82;;;11.50;;
38182;SDS011;23991;52.430;10.586;2023-06-22T01:15:44;12.65;;;11.23;;
38182;SDS011;23991;52.430;10.586;2023-06-22T01:18:14;11.48;;;10.27;;
38182;SDS011;23991;52.430;10.586;2023-06-22T01:20:42;12.68;;;10.75;;
38182;SDS011;23991;52.430;10.586;2023-06-22T01:26:26;11.88;;;10.27;;
38182;SDS011;23991;52.430;10.586;2023-06-22T01:29:03;14.35;;;10.25;;
38182;SDS011;23991;52.430;10.586;2023-06-22T01:31:30;14.55;;;10.50;;
38182;SDS011;23991;52.430;10.586;2023-06-22T01:34:01;11.93;;;10.23;;
38182;SDS011;23991;52.430;10.586;2023-06-22T01:36:29;14.48;;;10.63;;
38182;SDS011;23991;52.430;10.586;2023-06-22T01:38:56;12.65;;;10.48;;
38182;SDS011;23991;52.430;10.586;2023-06-22T01:41:24;11.95;;;10.65;;
38182;SDS011;23991;52.430;10.586;2023-06-22T01:43:51;11.93;;;10.57;;
38182;SDS011;23991;52.430;10.586;2023-06-22T01:46:18;13.65;;;10.93;;
38182;SDS011;23991;52.430;10.586;2023-06-22T01:48:44;13.55;;;10.18;;
38182;SDS011;23991;52.430;10.586;2023-06-22T01:51:11;15.65;;;11.00;;
38182;SDS011;23991;52.430;10.586;2023-06-22T01:53:37;14.43;;;11.18;;
38182;SDS011;23991;52.430;10.586;2023-06-22T01:56:03;12.10;;;10.23;;
38182;SDS011;23991;52.430;10.586;2023-06-22T01:58:29;13.57;;;10.23;;
38182;SDS011;23991;52.430;10.586;2023-06-22T02:01:17;13.70;;;10.40;;
38182;SDS011;23991;52.430;10.586;2023-06-22T02:03:48;13.38;;;10.50;;
38182;SDS011;23991;52.430;10.586;2023-06-22T02:06:21;13.05;;;10.48;;
38182;SDS011;23991;52.430;10.586;2023-06-22T02:08:57;12.45;;;10.35;;
38182;SDS011;23991;52.430;10.586;2023-06-22T02:11:26;11.10;;;9.88;;
38182;SDS011;23991;52.430;10.586;2023-06-22T02:13:53;10.88;;;9.05;;
38182;SDS011;23991;52.430;10.586;2023-06-22T02:16:19;14.52;;;10.32;;
38182;SDS011;23991;52.430;10.586;2023-06-22T02:18:46;13.70;;;10.43;;
38182;SDS011;23991;52.430;10.586;2023-06-22T02:21:12;12.52;;;10.35;;
38182;SDS011;23991;52.430;10.586;2023-06-22T02:23:39;12.15;;;9.85;;
38182;SDS011;23991;52.430;10.586;2023-06-22T02:26:04;14.63;;;11.25;;
38182;SDS011;23991;52.430;10.586;2023-06-22T02:28:30;13.13;;;10.32;;
38182;SDS011;23991;52.430;10.586;2023-06-22T02:30:55;12.73;;;10.77;;
38182;SDS011;23991;52.430;10.586;2023-06-22T02:33:21;12.23;;;10.73;;
38182;SDS011;23991;52.430;10.586;2023-06-22T02:35:46;12.40;;;10.30;;
38182;SDS011;23991;52.430;10.586;2023-06-22T02:38:14;12.20;;;10.88;;
38182;SDS011;23991;52.430;10.586;2023-06-22T02:40:40;13.73;;;10.50;;
38182;SDS011;23991;52.430;10.586;2023-06-22T02:43:05;11.45;;;9.65;;
38182;SDS011;23991;52.430;10.586;2023-06-22T02:45:31;10.40;;;9.20;;
38182;SDS011;23991;52.430;10.586;2023-06-22T02:47:56;12.85;;;9.60;;
38182;SDS011;23991;52.430;10.586;2023-06-22T02:50:22;11.82;;;10.30;;
38182;SDS011;23991;52.430;10.586;2023-06-22T02:52:48;13.25;;;8.90;;
38182;SDS011;23991;52.430;10.586;2023-06-22T02:55:13;11.02;;;9.05;;
38182;SDS011;23991;52.430;10.586;2023-06-22T02:57:39;10.68;;;9.32;;
38182;SDS011;23991;52.430;10.586;2023-06-22T03:00:08;10.40;;;8.77;;
38182;SDS011;23991;52.430;10.586;2023-06-22T03:02:46;10.05;;;9.00;;
38182;SDS011;23991;52.430;10.586;2023-06-22T03:05:13;10.52;;;9.43;;
38182;SDS011;23991;52.430;10.586;2023-06-22T03:07:42;10.65;;;9.25;;
38182;SDS011;23991;52.430;10.586;2023-06-22T03:10:09;10.88;;;8.60;;
38182;SDS011;23991;52.430;10.586;2023-06-22T03:12:39;9.13;;;7.93;;
38182;SDS011;23991;52.430;10.586;2023-06-22T03:17:32;9.55;;;8.55;;
38182;SDS011;23991;52.430;10.586;2023-06-22T03:19:58;12.38;;;9.98;;
38182;SDS011;23991;52.430;10.586;2023-06-22T03:22:24;13.10;;;9.32;;
38182;SDS011;23991;52.430;10.586;2023-06-22T03:24:49;9.85;;;8.40;;
38182;SDS011;23991;52.430;10.586;2023-06-22T03:27:15;12.23;;;9.20;;
38182;SDS011;23991;52.430;10.586;2023-06-22T03:29:40;11.95;;;9.10;;
38182;SDS011;23991;52.430;10.586;2023-06-22T03:32:06;11.30;;;9.38;;
38182;SDS011;23991;52.430;10.586;2023-06-22T03:34:32;12.15;;;9.20;;
38182;SDS011;23991;52.430;10.586;2023-06-22T03:37:03;10.98;;;8.82;;
38182;SDS011;23991;52.430;10.586;2023-06-22T03:39:29;9.95;;;8.15;;
38182;SDS011;23991;52.430;10.586;2023-06-22T03:41:54;11.68;;;8.77;;
38182;SDS011;23991;52.430;10.586;2023-06-22T03:44:20;12.88;;;8.88;;
38182;SDS011;23991;52.430;10.586;2023-06-22T03:46:45;14.68;;;9.68;;
38182;SDS011;23991;52.430;10.586;2023-06-22T03:49:11;12.48;;;9.32;;
38182;SDS011;23991;52.430;10.586;2023-06-22T03:51:36;10.65;;;9.18;;
38182;SDS011;23991;52.430;10.586;2023-06-22T03:54:02;13.75;;;9.93;;
38182;SDS011;23991;52.430;10.586;2023-06-22T03:56:27;12.07;;;9.23;;
38182;SDS011;23991;52.430;10.586;2023-06-22T03:58:53;11.02;;;9.15;;
38182;SDS011;23991;52.430;10.586;2023-06-22T04:01:18;12.40;;;9.43;;
38182;SDS011;23991;52.430;10.586;2023-06-22T04:03:44;9.68;;;8.65;;
38182;SDS011;23991;52.430;10.586;2023-06-22T04:06:09;10.77;;;8.82;;
38182;SDS011;23991;52.430;10.586;2023-06-22T04:08:35;10.15;;;8.40;;
38182;SDS011;23991;52.430;10.586;2023-06-22T04:11:00;13.45;;;9.02;;
38182;SDS011;23991;52.430;10.586;2023-06-22T04:13:26;10.57;;;9.07;;
38182;SDS011;23991;52.430;10.586;2023-06-22T04:15:51;11.55;;;8.77;;
38182;SDS011;23991;52.430;10.586;2023-06-22T04:18:17;11.13;;;8.75;;
38182;SDS011;23991;52.430;10.586;2023-06-22T04:20:43;9.35;;;8.45;;
38182;SDS011;23991;52.430;10.586;2023-06-22T04:23:11;11.57;;;9.52;;
38182;SDS011;23991;52.430;10.586;2023-06-22T04:25:37;11.77;;;8.93;;
38182;SDS011;23991;52.430;10.586;2023-06-22T04:28:03;9.07;;;8.02;;
38182;SDS011;23991;52.430;10.586;2023-06-22T04:30:29;10.68;;;8.73;;
38182;SDS011;23991;52.430;10.586;2023-06-22T04:32:56;10.38;;;8.88;;
38182;SDS011;23991;52.430;10.586;2023-06-22T04:35:23;10.93;;;9.07;;
38182;SDS011;23991;52.430;10.586;2023-06-22T04:37:49;12.18;;;8.55;;
38182;SDS011;23991;52.430;10.586;2023-06-22T04:40:14;9.98;;;8.55;;
38182;SDS011;23991;52.430;10.586;2023-06-22T04:42:40;10.90;;;9.02;;
38182;SDS011;23991;52.430;10.586;2023-06-22T04:45:18;9.85;;;8.52;;
38182;SDS011;23991;52.430;10.586;2023-06-22T04:47:46;9.55;;;8.55;;
38182;SDS011;23991;52.430;10.586;2023-06-22T04:50:12;10.60;;;8.15;;
38182;SDS011;23991;52.430;10.586;2023-06-22T04:52:38;10.95;;;9.02;;
38182;SDS011;23991;52.430;10.586;2023-06-22T04:55:03;10.95;;;7.35;;
38182;SDS011;23991;52.430;10.586;2023-06-22T04:57:29;10.98;;;7.72;;
38182;SDS011;23991;52.430;10.586;2023-06-22T04:59:59;8.80;;;7.90;;
38182;SDS011;23991;52.430;10.586;2023-06-22T05:02:37;9.88;;;7.40;;
38182;SDS011;23991;52.430;10.586;2023-06-22T05:05:05;9.00;;;7.00;;
38182;SDS011;23991;52.430;10.586;2023-06-22T05:07:35;8.25;;;7.38;;
38182;SDS011;23991;52.430;10.586;2023-06-22T05:10:01;10.52;;;7.03;;
38182;SDS011;23991;52.430;10.586;2023-06-22T05:12:28;12.82;;;7.15;;
38182;SDS011;23991;52.430;10.586;2023-06-22T05:14:54;7.97;;;7.18;;
38182;SDS011;23991;52.430;10.586;2023-06-22T05:17:20;8.15;;;7.25;;
38182;SDS011;23991;52.430;10.586;2023-06-22T05:19:45;9.57;;;7.45;;
38182;SDS011;23991;52.430;10.586;2023-06-22T05:22:15;9.18;;;6.78;;
38182;SDS011;23991;52.430;10.586;2023-06-22T05:24:41;10.07;;;7.15;;
38182;SDS011;23991;52.430;10.586;2023-06-22T05:27:07;7.70;;;6.90;;
38182;SDS011;23991;52.430;10.586;2023-06-22T05:29:33;8.25;;;6.90;;
38182;SDS011;23991;52.430;10.586;2023-06-22T05:31:59;8.45;;;6.65;;
38182;SDS011;23991;52.430;10.586;2023-06-22T05:34:24;8.63;;;6.95;;
38182;SDS011;23991;52.430;10.586;2023-06-22T05:36:50;8.45;;;6.80;;
38182;SDS011;23991;52.430;10.586;2023-06-22T05:39:16;7.72;;;6.93;;
38182;SDS011;23991;52.430;10.586;2023-06-22T05:41:42;7.88;;;6.40;;
38182;SDS011;23991;52.430;10.586;2023-06-22T05:44:08;9.20;;;6.53;;
38182;SDS011;23991;52.430;10.586;2023-06-22T05:46:33;7.75;;;6.82;;
38182;SDS011;23991;52.430;10.586;2023-06-22T05:48:59;8.82;;;6.32;;
38182;SDS011;23991;52.430;10.586;2023-06-22T05:51:25;7.18;;;6.45;;
38182;SDS011;23991;52.430;10.586;2023-06-22T05:53:50;8.52;;;6.45;;
38182;SDS011;23991;52.430;10.586;2023-06-22T05:56:16;10.27;;;6.28;;
38182;SDS011;23991;52.430;10.586;2023-06-22T05:58:42;6.57;;;5.88;;
38182;SDS011;23991;52.430;10.586;2023-06-22T06:01:07;7.88;;;6.20;;
38182;SDS011;23991;52.430;10.586;2023-06-22T06:03:33;10.48;;;6.65;;
38182;SDS011;23991;52.430;10.586;2023-06-22T06:05:58;7.57;;;5.95;;
38182;SDS011;23991;52.430;10.586;2023-06-22T06:08:24;11.35;;;5.90;;
38182;SDS011;23991;52.430;10.586;2023-06-22T06:10:50;6.78;;;6.07;;
38182;SDS011;23991;52.430;10.586;2023-06-22T06:13:18;8.20;;;5.90;;
38182;SDS011;23991;52.430;10.586;2023-06-22T06:15:43;8.13;;;5.55;;
38182;SDS011;23991;52.430;10.586;2023-06-22T06:18:09;8.63;;;5.95;;
38182;SDS011;23991;52.430;10.586;2023-06-22T06:20:34;7.10;;;6.32;;
38182;SDS011;23991;52.430;10.586;2023-06-22T06:23:00;9.15;;;6.10;;
38182;SDS011;23991;52.430;10.586;2023-06-22T06:25:26;7.65;;;5.90;;
38182;SDS011;23991;52.430;10.586;2023-06-22T06:27:52;9.60;;;6.50;;
38182;SDS011;23991;52.430;10.586;2023-06-22T06:30:19;7.47;;;5.70;;
38182;SDS011;23991;52.430;10.586;2023-06-22T06:32:45;8.35;;;5.43;;
38182;SDS011;23991;52.430;10.586;2023-06-22T06:35:12;10.27;;;6.47;;
38182;SDS011;23991;52.430;10.586;2023-06-22T06:37:39;9.48;;;6.40;;
38182;SDS011;23991;52.430;10.586;2023-06-22T06:40:06;7.57;;;6.30;;
38182;SDS011;23991;52.430;10.586;2023-06-22T06:42:36;7.68;;;5.60;;
38182;SDS011;23991;52.430;10.586;2023-06-22T06:45:05;10.80;;;6.03;;
38182;SDS011;23991;52.430;10.586;2023-06-22T06:47:31;8.20;;;5.60;;
38182;SDS011;23991;52.430;10.586;2023-06-22T06:49:56;8.30;;;6.43;;
38182;SDS011;23991;52.430;10.586;2023-06-22T06:52:22;7.95;;;5.97;;
38182;SDS011;23991;52.430;10.586;2023-06-22T06:54:48;6.95;;;5.80;;
38182;SDS011;23991;52.430;10.586;2023-06-22T06:57:13;10.98;;;5.88;;
38182;SDS011;23991;52.430;10.586;2023-06-22T06:59:40;8.93;;;6.50;;
38182;SDS011;23991;52.430;10.586;2023-06-22T07:02:06;7.97;;;5.90;;
38182;SDS011;23991;52.430;10.586;2023-06-22T07:04:31;9.23;;;6.72;;
38182;SDS011;23991;52.430;10.586;2023-06-22T07:06:58;8.18;;;6.13;;
38182;SDS011;23991;52.430;10.586;2023-06-22T07:09:26;8.50;;;6.23;;
38182;SDS011;23991;52.430;10.586;2023-06-22T07:11:51;10.52;;;6.50;;
38182;SDS011;23991;52.430;10.586;2023-06-22T07:14:17;9.35;;;6.47;;
38182;SDS011;23991;52.430;10.586;2023-06-22T07:16:42;11.18;;;6.22;;
38182;SDS011;23991;52.430;10.586;2023-06-22T07:19:08;7.50;;;6.15;;
38182;SDS011;23991;52.430;10.586;2023-06-22T07:21:33;8.52;;;5.43;;
38182;SDS011;23991;52.430;10.586;2023-06-22T07:23:58;9.00;;;6.47;;
38182;SDS011;23991;52.430;10.586;2023-06-22T07:26:24;7.75;;;5.93;;
38182;SDS011;23991;52.430;10.586;2023-06-22T07:28:49;7.28;;;6.15;;
38182;SDS011;23991;52.430;10.586;2023-06-22T07:31:15;9.25;;;5.80;;
38182;SDS011;23991;52.430;10.586;2023-06-22T07:33:41;7.10;;;5.82;;
38182;SDS011;23991;52.430;10.586;2023-06-22T07:36:06;8.63;;;5.75;;
38182;SDS011;23991;52.430;10.586;2023-06-22T07:38:32;10.70;;;6.10;;
38182;SDS011;23991;52.430;10.586;2023-06-22T07:40:58;9.40;;;6.28;;
38182;SDS011;23991;52.430;10.586;2023-06-22T07:43:24;10.68;;;6.07;;
38182;SDS011;23991;52.430;10.586;2023-06-22T07:45:49;7.82;;;5.65;;
38182;SDS011;23991;52.430;10.586;2023-06-22T07:48:21;9.95;;;6.15;;
38182;SDS011;23991;52.430;10.586;2023-06-22T07:50:47;7.30;;;5.93;;
38182;SDS011;23991;52.430;10.586;2023-06-22T07:53:13;11.75;;;6.28;;
38182;SDS011;23991;52.430;10.586;2023-06-22T07:55:38;6.68;;;5.55;;
38182;SDS011;23991;52.430;10.586;2023-06-22T07:58:04;6.32;;;5.60;;
38182;SDS011;23991;52.430;10.586;2023-06-22T08:00:29;6.60;;;5.95;;
38182;SDS011;23991;52.430;10.586;2023-06-22T08:02:55;7.50;;;5.80;;
38182;SDS011;23991;52.430;10.586;2023-06-22T08:05:21;7.38;;;5.47;;
38182;SDS011;23991;52.430;10.586;2023-06-22T08:07:46;7.13;;;5.40;;
38182;SDS011;23991;52.430;10.586;2023-06-22T08:10:12;8.00;;;6.32;;
38182;SDS011;23991;52.430;10.586;2023-06-22T08:12:39;7.55;;;5.65;;
38182;SDS011;23991;52.430;10.586;2023-06-22T08:15:05;8.43;;;5.78;;
38182;SDS011;23991;52.430;10.586;2023-06-22T08:17:32;8.77;;;6.03;;
38182;SDS011;23991;52.430;10.586;2023-06-22T08:19:58;8.70;;;6.68;;
38182;SDS011;23991;52.430;10.586;2023-06-22T08:22:23;9.27;;;7.55;;
38182;SDS011;23991;52.430;10.586;2023-06-22T08:24:49;10.27;;;8.15;;
38182;SDS011;23991;52.430;10.586;2023-06-22T08:27:14;8.75;;;7.80;;
38182;SDS011;23991;52.430;10.586;2023-06-22T08:29:41;9.40;;;7.88;;
38182;SDS011;23991;52.430;10.586;2023-06-22T08:32:10;8.38;;;6.50;;
38182;SDS011;23991;52.430;10.586;2023-06-22T08:34:36;7.65;;;6.85;;
38182;SDS011;23991;52.430;10.586;2023-06-22T08:37:07;10.23;;;7.40;;
38182;SDS011;23991;52.430;10.586;2023-06-22T08:39:33;8.40;;;7.60;;
38182;SDS011;23991;52.430;10.586;2023-06-22T08:41:58;8.55;;;7.53;;
38182;SDS011;23991;52.430;10.586;2023-06-22T08:44:25;10.15;;;7.40;;
38182;SDS011;23991;52.430;10.586;2023-06-22T08:46:50;10.43;;;7.75;;
38182;SDS011;23991;52.430;10.586;2023-06-22T08:49:15;8.95;;;7.57;;
38182;SDS011;23991;52.430;10.586;2023-06-22T08:51:41;8.02;;;7.28;;
38182;SDS011;23991;52.430;10.586;2023-06-22T08:54:06;9.05;;;7.43;;
38182;SDS011;23991;52.430;10.586;2023-06-22T08:56:32;9.82;;;7.65;;
38182;SDS011;23991;52.430;10.586;2023-06-22T08:58:57;9.63;;;8.63;;
38182;SDS011;23991;52.430;10.586;2023-06-22T09:01:23;9.63;;;8.35;;
38182;SDS011;23991;52.430;10.586;2023-06-22T09:03:48;10.68;;;8.30;;
38182;SDS011;23991;52.430;10.586;2023-06-22T09:06:19;9.07;;;8.18;;
38182;SDS011;23991;52.430;10.586;2023-06-22T09:08:46;10.38;;;8.60;;
38182;SDS011;23991;52.430;10.586;2023-06-22T09:11:12;9.70;;;8.52;;
38182;SDS011;23991;52.430;10.586;2023-06-22T09:13:37;10.88;;;8.82;;
38182;SDS011;23991;52.430;10.586;2023-06-22T09:16:03;9.05;;;8.15;;
38182;SDS011;23991;52.430;10.586;2023-06-22T09:18:28;9.95;;;8.95;;
38182;SDS011;23991;52.430;10.586;2023-06-22T09:20:54;10.13;;;9.13;;
38182;SDS011;23991;52.430;10.586;2023-06-22T09:23:19;10.23;;;8.85;;
38182;SDS011;23991;52.430;10.586;2023-06-22T09:25:45;10.25;;;8.82;;
38182;SDS011;23991;52.430;10.586;2023-06-22T09:28:12;9.68;;;8.57;;
38182;SDS011;23991;52.430;10.586;2023-06-22T09:30:39;9.40;;;8.45;;
38182;SDS011;23991;52.430;10.586;2023-06-22T09:33:04;8.93;;;8.02;;
38182;SDS011;23991;52.430;10.586;2023-06-22T09:35:29;9.85;;;8.30;;
38182;SDS011;23991;52.430;10.586;2023-06-22T09:37:55;9.55;;;8.50;;
38182;SDS011;23991;52.430;10.586;2023-06-22T09:40:20;8.98;;;8.07;;
38182;SDS011;23991;52.430;10.586;2023-06-22T09:42:46;10.85;;;8.25;;
38182;SDS011;23991;52.430;10.586;2023-06-22T09:45:11;8.57;;;7.65;;
38182;SDS011;23991;52.430;10.586;2023-06-22T09:47:37;11.30;;;8.77;;
38182;SDS011;23991;52.430;10.586;2023-06-22T09:50:03;10.43;;;8.20;;
38182;SDS011;23991;52.430;10.586;2023-06-22T09:52:28;10.35;;;7.32;;
38182;SDS011;23991;52.430;10.586;2023-06-22T09:54:54;10.77;;;8.48;;
38182;SDS011;23991;52.430;10.586;2023-06-22T09:57:20;9.13;;;8.15;;
38182;SDS011;23991;52.430;10.586;2023-06-22T09:59:45;8.98;;;8.13;;
38182;SDS011;23991;52.430;10.586;2023-06-22T10:02:10;10.02;;;8.50;;
38182;SDS011;23991;52.430;10.586;2023-06-22T10:04:36;9.77;;;8.77;;
38182;SDS011;23991;52.430;10.586;2023-06-22T10:07:02;11.93;;;8.15;;
38182;SDS011;23991;52.430;10.586;2023-06-22T10:09:28;9.68;;;8.30;;
38182;SDS011;23991;52.430;10.586;2023-06-22T10:11:53;9.45;;;8.50;;
38182;SDS011;23991;52.430;10.586;2023-06-22T10:14:19;10.27;;;8.18;;
38182;SDS011;23991;52.430;10.586;2023-06-22T10:16:45;11.32;;;8.07;;
38182;SDS011;23991;52.430;10.586;2023-06-22T10:19:10;8.65;;;7.80;;
38182;SDS011;23991;52.430;10.586;2023-06-22T10:21:36;9.90;;;7.63;;
38182;SDS011;23991;52.430;10.586;2023-06-22T10:24:01;10.73;;;8.85;;
38182;SDS011;23991;52.430;10.586;2023-06-22T10:28:57;9.27;;;8.38;;
38182;SDS011;23991;52.430;10.586;2023-06-22T10:31:22;11.85;;;9.23;;
38182;SDS011;23991;52.430;10.586;2023-06-22T10:33:48;10.73;;;8.23;;
38182;SDS011;23991;52.430;10.586;2023-06-22T10:36:14;12.15;;;8.50;;
38182;SDS011;23991;52.430;10.586;2023-06-22T10:38:40;9.20;;;8.30;;
38182;SDS011;23991;52.430;10.586;2023-06-22T10:41:05;9.25;;;7.88;;
38182;SDS011;23991;52.430;10.586;2023-06-22T10:43:31;8.50;;;7.72;;
38182;SDS011;23991;52.430;10.586;2023-06-22T10:45:56;12.68;;;8.60;;
38182;SDS011;23991;52.430;10.586;2023-06-22T10:48:22;8.55;;;7.75;;
38182;SDS011;23991;52.430;10.586;2023-06-22T10:50:47;7.65;;;6.95;;
38182;SDS011;23991;52.430;10.586;2023-06-22T10:53:13;9.77;;;7.82;;
38182;SDS011;23991;52.430;10.586;2023-06-22T10:55:38;9.35;;;8.45;;
38182;SDS011;23991;52.430;10.586;2023-06-22T10:58:04;8.25;;;7.40;;
38182;SDS011;23991;52.430;10.586;2023-06-22T11:00:29;8.13;;;7.32;;
38182;SDS011;23991;52.430;10.586;2023-06-22T11:02:55;7.70;;;7.00;;
38182;SDS011;23991;52.430;10.586;2023-06-22T11:05:20;8.70;;;7.47;;
38182;SDS011;23991;52.430;10.586;2023-06-22T11:07:46;11.40;;;7.25;;
38182;SDS011;23991;52.430;10.586;2023-06-22T11:10:12;9.25;;;8.13;;
38182;SDS011;23991;52.430;10.586;2023-06-22T11:12:38;8.68;;;7.60;;
38182;SDS011;23991;52.430;10.586;2023-06-22T11:15:04;8.85;;;7.43;;
38182;SDS011;23991;52.430;10.586;2023-06-22T11:17:29;9.07;;;8.18;;
38182;SDS011;23991;52.430;10.586;2023-06-22T11:19:55;10.75;;;7.30;;
38182;SDS011;23991;52.430;10.586;2023-06-22T11:22:20;9.70;;;7.57;;
38182;SDS011;23991;52.430;10.586;2023-06-22T11:24:46;7.53;;;6.57;;
38182;SDS011;23991;52.430;10.586;2023-06-22T11:27:11;8.82;;;7.30;;
38182;SDS011;23991;52.430;10.586;2023-06-22T11:29:37;12.07;;;7.55;;
38182;SDS011;23991;52.430;10.586;2023-06-22T11:32:05;8.25;;;7.15;;
38182;SDS011;23991;52.430;10.586;2023-06-22T11:34:32;8.23;;;7.43;;
38182;SDS011;23991;52.430;10.586;2023-06-22T11:36:57;11.77;;;8.63;;
38182;SDS011;23991;52.430;10.586;2023-06-22T11:39:23;11.95;;;9.50;;
38182;SDS011;23991;52.430;10.586;2023-06-22T11:41:48;10.98;;;8.98;;
38182;SDS011;23991;52.430;10.586;2023-06-22T11:44:14;9.98;;;9.07;;
38182;SDS011;23991;52.430;10.586;2023-06-22T11:46:39;9.85;;;8.95;;
38182;SDS011;23991;52.430;10.586;2023-06-22T11:49:04;13.25;;;9.85;;
38182;SDS011;23991;52.430;10.586;2023-06-22T11:51:30;12.98;;;9.02;;
38182;SDS011;23991;52.430;10.586;2023-06-22T11:53:56;10.27;;;9.27;;
38182;SDS011;23991;52.430;10.586;2023-06-22T11:56:22;12.05;;;9.68;;
38182;SDS011;23991;52.430;10.586;2023-06-22T11:58:47;9.82;;;8.93;;
38182;SDS011;23991;52.430;10.586;2023-06-22T12:01:13;9.45;;;8.45;;
38182;SDS011;23991;52.430;10.586;2023-06-22T12:03:40;9.05;;;8.15;;
38182;SDS011;23991;52.430;10.586;2023-06-22T12:06:08;11.77;;;9.10;;
38182;SDS011;23991;52.430;10.586;2023-06-22T12:08:34;12.55;;;8.27;;
38182;SDS011;23991;52.430;10.586;2023-06-22T12:11:00;10.55;;;8.07;;
38182;SDS011;23991;52.430;10.586;2023-06-22T12:13:25;11.65;;;8.73;;
38182;SDS011;23991;52.430;10.586;2023-06-22T12:15:51;11.73;;;8.50;;
38182;SDS011;23991;52.430;10.586;2023-06-22T12:18:17;10.50;;;8.88;;
38182;SDS011;23991;52.430;10.586;2023-06-22T12:20:45;9.13;;;8.13;;
38182;SDS011;23991;52.430;10.586;2023-06-22T12:23:11;9.88;;;7.93;;
38182;SDS011;23991;52.430;10.586;2023-06-22T12:25:36;8.43;;;6.88;;
38182;SDS011;23991;52.430;10.586;2023-06-22T12:28:02;8.32;;;7.43;;
38182;SDS011;23991;52.430;10.586;2023-06-22T12:30:29;8.95;;;8.07;;
38182;SDS011;23991;52.430;10.586;2023-06-22T12:32:55;8.43;;;7.45;;
38182;SDS011;23991;52.430;10.586;2023-06-22T12:35:20;6.75;;;6.15;;
38182;SDS011;23991;52.430;10.586;2023-06-22T12:37:46;7.72;;;7.03;;
38182;SDS011;23991;52.430;10.586;2023-06-22T12:40:11;7.70;;;6.95;;
38182;SDS011;23991;52.430;10.586;2023-06-22T12:42:37;10.07;;;8.15;;
38182;SDS011;23991;52.430;10.586;2023-06-22T12:45:02;9.18;;;7.72;;
38182;SDS011;23991;52.430;10.586;2023-06-22T12:47:29;9.27;;;7.65;;
38182;SDS011;23991;52.430;10.586;2023-06-22T12:49:54;8.43;;;7.60;;
38182;SDS011;23991;52.430;10.586;2023-06-22T12:52:20;8.93;;;8.02;;
38182;SDS011;23991;52.430;10.586;2023-06-22T12:54:45;8.07;;;7.38;;
38182;SDS011;23991;52.430;10.586;2023-06-22T12:57:11;7.80;;;7.10;;
38182;SDS011;23991;52.430;10.586;2023-06-22T12:59:36;8.30;;;6.63;;
38182;SDS011;23991;52.430;10.586;2023-06-22T13:02:02;9.50;;;7.03;;
38182;SDS011;23991;52.430;10.586;2023-06-22T13:04:27;7.55;;;6.60;;
38182;SDS011;23991;52.430;10.586;2023-06-22T13:06:53;7.95;;;6.53;;
38182;SDS011;23991;52.430;10.586;2023-06-22T13:09:18;7.25;;;6.47;;
38182;SDS011;23991;52.430;10.586;2023-06-22T13:11:44;8.02;;;7.32;;
38182;SDS011;23991;52.430;10.586;2023-06-22T13:14:10;10.15;;;7.30;;
38182;SDS011;23991;52.430;10.586;2023-06-22T13:16:35;9.63;;;7.80;;
38182;SDS011;23991;52.430;10.586;2023-06-22T13:19:01;10.85;;;7.15;;
38182;SDS011;23991;52.430;10.586;2023-06-22T13:21:26;7.57;;;6.88;;
38182;SDS011;23991;52.430;10.586;2023-06-22T13:23:52;8.93;;;7.40;;
38182;SDS011;23991;52.430;10.586;2023-06-22T13:26:17;7.53;;;6.60;;
38182;SDS011;23991;52.430;10.586;2023-06-22T13:28:43;9.90;;;7.05;;
38182;SDS011;23991;52.430;10.586;2023-06-22T13:31:08;7.53;;;6.70;;
38182;SDS011;23991;52.430;10.586;2023-06-22T13:33:34;7.35;;;6.65;;
38182;SDS011;23991;52.430;10.586;2023-06-22T13:35:59;7.50;;;6.55;;
38182;SDS011;23991;52.430;10.586;2023-06-22T13:38:25;6.60;;;5.90;;
38182;SDS011;23991;52.430;10.586;2023-06-22T13:40:50;6.35;;;5.75;;
38182;SDS011;23991;52.430;10.586;2023-06-22T13:43:16;8.73;;;6.25;;
38182;SDS011;23991;52.430;10.586;2023-06-22T13:45:42;8.40;;;6.45;;
38182;SDS011;23991;52.430;10.586;2023-06-22T13:48:08;8.05;;;6.50;;
38182;SDS011;23991;52.430;10.586;2023-06-22T13:50:34;6.45;;;5.82;;
38182;SDS011;23991;52.430;10.586;2023-06-22T13:53:00;6.60;;;5.88;;
38182;SDS011;23991;52.430;10.586;2023-06-22T13:55:25;7.13;;;6.40;;
38182;SDS011;23991;52.430;10.586;2023-06-22T13:57:51;9.98;;;5.63;;
38182;SDS011;23991;52.430;10.586;2023-06-22T14:00:17;7.07;;;6.38;;
38182;SDS011;23991;52.430;10.586;2023-06-22T14:02:43;6.93;;;6.28;;
38182;SDS011;23991;52.430;10.586;2023-06-22T14:05:09;6.47;;;5.88;;
38182;SDS011;23991;52.430;10.586;2023-06-22T14:07:36;6.95;;;6.25;;
38182;SDS011;23991;52.430;10.586;2023-06-22T14:10:02;12.32;;;6.63;;
38182;SDS011;23991;52.430;10.586;2023-06-22T14:12:28;6.80;;;6.10;;
38182;SDS011;23991;52.430;10.586;2023-06-22T14:14:54;6.97;;;5.70;;
38182;SDS011;23991;52.430;10.586;2023-06-22T14:17:23;8.43;;;5.80;;
38182;SDS011;23991;52.430;10.586;2023-06-22T14:20:00;6.97;;;6.30;;
38182;SDS011;23991;52.430;10.586;2023-06-22T14:22:25;7.10;;;6.10;;
38182;SDS011;23991;52.430;10.586;2023-06-22T14:24:57;8.27;;;6.72;;
38182;SDS011;23991;52.430;10.586;2023-06-22T14:27:25;7.82;;;6.50;;
38182;SDS011;23991;52.430;10.586;2023-06-22T14:29:52;6.63;;;6.00;;
38182;SDS011;23991;52.430;10.586;2023-06-22T14:32:18;12.32;;;6.22;;